Lake Sherwood, California
Current Conditions -  °F | °C
As of 11:55 AM on Thursday 23 Oct 2014 (Local Time) from KCMA Reporting Station
Clear Clear  
Wind Chill: 79°   Ceiling: Unl
Heat Index: 79°   Visibility: 10mi
Dew Point: 53°   Wind: 5mph
Humidity: 40%   Direction: 220°SW
Pressure: 29.98"   Gusts: NA
Location:  34.1434°N, 118.876°W
Report Text: KCMA 231855Z 22004KT 10SM CLR 26/12 A2998 RMK AO2 SLP161 T02610117
Loading
Personal Weather Stations






























Interactive Weather Map
Tropical Storm Tracking
New forecast layout! Learn more

10-Day Weather Forecast

Advertisements
Track Severe Weather on mobile